VIAR/ATQ METAR and TAF weather

Enter ICAO airport designator
Station Type Date Time Source
VIAR METAR 2020/08/14 16:30 UTC NOAA

VIAR 141630Z VRB02KT 3500 BR FEW030 SCT090 29/26 Q0998 NOSIG


Station Type Date Time Source
VIAR Decoded METAR 2020/08/14 16:30 UTC NOAA

Amritsar, India (VIAR) 31-38N 074-52E 234M
Aug 14, 2020 - 12:30 PM EDT / 2020.08.14 1630 UTC
Wind: Variable at 2 MPH (2 KT):0
Visibility: 2 mile(s):0
Sky conditions: partly cloudy
Weather: mist
Temperature: 84 F (29 C)
Dew Point: 78 F (26 C)
Relative Humidity: 83%
Pressure (altimeter): 29.47 in. Hg (0998 hPa)
ob: VIAR 141630Z VRB02KT 3500 BR FEW030 SCT090 29/26 Q0998 NOSIG
cycle: 16

Station Type Date Time Source
VIAR TAF 2020/08/14 12:03 UTC NOAA

TAF TAF VIAR 141100Z 1412/1518 15008KT 4500 HZ SCT030 BKN090
TEMPO 1412/1415 FEW035CB
BECMG 1417/1419 VRB02KT 2500 BR FEW030 SCT090
BECMG 1503/1505 09006KT 4000 BR HZ SCT030 BKN090
BECMG 1506/1508 5000 HZ
TEMPO 1509/1512 FEW040CB
BECMG 1515/1517 15006KT 2500 BR -RA FEW030 SCT080

Example: see airport list